Boa Tyr — LAMU — position and weather

sailwx.info

Track history (hours):
 
Tides and Currents Weather Stations Pressure Air Temp Water Temp Dewpoint Dewpoint Depression Visibility Wind Speed Wind Dir Waves Ship Positions

Boa Tyr

Last reported at 2016-Dec-18 09:32 UTC. Time now 2017-Mar-28 10:06 UTC.
Position N 63°55' E 009°59'.
Warning: this ship's position is months out of date.

Length 31 m; draft 5 m.

Type: Tug. MMSI: 258395000.

Date/timePositionNaut miles runAvg speedWind from/ knotsBaromVisibWave heightAir tempDewpointWater temp
2016-Dec-18 09:32N 63°55' E 009°59'3 0.2
2016-Dec-17 17:16N 63°57' E 009°55'58 7.3
2016-Dec-17 09:22N 64°47' E 011°03'7 8.6
2016-Dec-17 08:33N 64°52' E 011°14'0 0.0
2016-Dec-17 07:34N 64°52' E 011°14'0 0.0
2016-Dec-17 06:33N 64°52' E 011°14'0 0.0
2016-Dec-17 05:33N 64°52' E 011°14'0 0.0
2016-Dec-17 04:33N 64°52' E 011°14'0 0.0
2016-Dec-17 03:33N 64°52' E 011°14'0 0.0
2016-Dec-17 02:34N 64°52' E 011°14'0 0.0
2016-Dec-17 01:33N 64°52' E 011°14'0 0.0
2016-Dec-17 00:34N 64°52' E 011°14'0 0.0
2016-Dec-16 23:34N 64°52' E 011°14'0 0.0
2016-Dec-16 22:33N 64°52' E 011°14'0 0.0
2016-Dec-16 21:34N 64°52' E 011°14'3 2.7
2016-Dec-16 20:33N 64°53' E 011°19'1010.1
2016-Dec-16 19:33N 65°00' E 011°37'10 9.8
2016-Dec-16 18:33N 65°08' E 011°52'1010.3
2016-Dec-16 17:33N 65°14' E 012°12'8 0.7
2016-Dec-16 06:25N 65°20' E 012°23'14 1.3
2016-Dec-15 19:20N 65°12' E 011°57'7 9.4
2016-Dec-15 18:34N 65°19' E 011°60'  
2016-Dec-12 17:04N 65°12' E 011°57'5 8.8
2016-Dec-12 16:33N 65°16' E 011°57'  
2016-Dec-09 21:31N 65°14' E 011°55'0 0.0
2016-Dec-08 19:09N 65°13' E 011°55'  
Track history (hours):
 
Tides and Currents Weather Stations Pressure Air Temp Water Temp Dewpoint Dewpoint Depression Visibility Wind Speed Wind Dir Waves Ship Positions

Boa Tyr

Last reported at 2016-Dec-18 09:32 UTC. Time now 2017-Mar-28 10:06 UTC.
Position N 63°55' E 009°59'.
Warning: this ship's position is months out of date.

Length 31 m; draft 5 m.

Type: Tug. MMSI: 258395000.

Date/timePositionNaut miles runAvg speedWind from/ knotsBaromVisibWave heightAir tempDewpointWater temp
2016-Dec-18 09:32N 63°55' E 009°59'3 0.2
2016-Dec-17 17:16N 63°57' E 009°55'58 7.3
2016-Dec-17 09:22N 64°47' E 011°03'7 8.6
2016-Dec-17 08:33N 64°52' E 011°14'0 0.0
2016-Dec-17 07:34N 64°52' E 011°14'0 0.0
2016-Dec-17 06:33N 64°52' E 011°14'0 0.0
2016-Dec-17 05:33N 64°52' E 011°14'0 0.0
2016-Dec-17 04:33N 64°52' E 011°14'0 0.0
2016-Dec-17 03:33N 64°52' E 011°14'0 0.0
2016-Dec-17 02:34N 64°52' E 011°14'0 0.0
2016-Dec-17 01:33N 64°52' E 011°14'0 0.0
2016-Dec-17 00:34N 64°52' E 011°14'0 0.0
2016-Dec-16 23:34N 64°52' E 011°14'0 0.0
2016-Dec-16 22:33N 64°52' E 011°14'0 0.0
2016-Dec-16 21:34N 64°52' E 011°14'3 2.7
2016-Dec-16 20:33N 64°53' E 011°19'1010.1
2016-Dec-16 19:33N 65°00' E 011°37'10 9.8
2016-Dec-16 18:33N 65°08' E 011°52'1010.3
2016-Dec-16 17:33N 65°14' E 012°12'8 0.7
2016-Dec-16 06:25N 65°20' E 012°23'14 1.3
2016-Dec-15 19:20N 65°12' E 011°57'7 9.4
2016-Dec-15 18:34N 65°19' E 011°60'  
2016-Dec-12 17:04N 65°12' E 011°57'5 8.8
2016-Dec-12 16:33N 65°16' E 011°57'  
2016-Dec-09 21:31N 65°14' E 011°55'0 0.0
2016-Dec-08 19:09N 65°13' E 011°55'  

Dump ship's entire track history